Time;durP1;ratioP1;P1;durP2;ratioP2;P2;SDS_P1;SDS_P2;PMS_P1;PMS_P2;Temp;Humidity;BMP_temperature;BMP_pressure;BME280_temperature;BME280_humidity;BME280_pressure;Samples;Min_cycle;Max_cycle;Signal;HPM_P1;HPM_P2
2022/06/24 00:02:27;;;;;;;18.13;9.50;;;;;;;25.77;49.09;100759.88;5226716;28;20880;-37
2022/06/24 00:05:03;;;;;;;17.23;12.07;;;;;;;25.81;49.10;100762.09;5223086;28;20417;-39
2022/06/24 00:07:46;;;;;;;13.65;10.68;;;;;;;25.81;49.03;100752.09;5226614;28;20427;-37
2022/06/24 00:10:23;;;;;;;16.33;11.20;;;;;;;25.82;49.00;100750.22;5230339;28;22980;-37
2022/06/24 00:12:58;;;;;;;19.95;11.90;;;;;;;25.73;49.02;100738.97;5227942;28;21349;-38
2022/06/24 00:15:33;;;;;;;22.58;11.40;;;;;;;25.73;49.00;100733.56;5226798;28;20420;-37
2022/06/24 00:18:14;;;;;;;20.25;12.02;;;;;;;25.73;49.13;100739.78;5229954;28;20513;-37
2022/06/24 00:20:50;;;;;;;16.90;11.48;;;;;;;25.72;49.20;100743.59;5232599;28;20958;-38
2022/06/24 00:23:24;;;;;;;17.25;11.23;;;;;;;25.68;49.48;100753.28;5227885;28;20415;-38
2022/06/24 00:25:58;;;;;;;17.77;11.63;;;;;;;25.64;49.51;100746.75;5228539;28;20416;-38
2022/06/24 00:28:30;;;;;;;17.15;12.13;;;;;;;25.61;49.54;100741.84;5226110;28;20424;-37
2022/06/24 00:31:04;;;;;;;17.90;11.52;;;;;;;25.62;49.54;100738.06;5228027;28;20505;-37
2022/06/24 00:33:37;;;;;;;19.00;11.87;;;;;;;25.61;49.77;100730.19;5224646;28;20427;-38
2022/06/24 00:36:10;;;;;;;20.05;13.20;;;;;;;25.51;50.12;100730.88;5236850;28;20410;-38
2022/06/24 00:38:50;;;;;;;20.95;13.63;;;;;;;25.32;50.47;100727.66;5230876;28;20421;-38
2022/06/24 00:41:27;;;;;;;20.47;14.67;;;;;;;25.05;50.79;100724.84;5233457;28;20917;-37
2022/06/24 00:44:01;;;;;;;25.15;16.65;;;;;;;24.81;51.28;100716.94;5227951;28;20484;-37
2022/06/24 00:46:38;;;;;;;23.17;18.25;;;;;;;24.16;51.93;100650.00;5228925;28;20915;-37
2022/06/24 00:49:13;;;;;;;27.43;18.30;;;;;;;24.32;52.16;100708.56;5227928;28;20419;-38
2022/06/24 00:51:46;;;;;;;24.60;17.80;;;;;;;24.15;52.62;100705.81;5231046;28;20411;-39
2022/06/24 00:54:23;;;;;;;31.42;20.17;;;;;;;24.13;52.74;100726.03;5228028;28;20915;-38
2022/06/24 00:56:57;;;;;;;24.80;17.52;;;;;;;24.10;52.74;100711.16;5231358;28;20404;-40
2022/06/24 00:59:33;;;;;;;25.75;18.48;;;;;;;24.14;52.71;100722.28;5226528;28;20411;-37
2022/06/24 01:02:08;;;;;;;26.97;18.07;;;;;;;23.93;53.06;100697.63;5231043;28;20478;-39
2022/06/24 01:04:40;;;;;;;20.20;15.35;;;;;;;23.99;53.07;100698.53;5223977;28;20505;-39
2022/06/24 01:07:12;;;;;;;23.90;15.70;;;;;;;24.03;53.27;100698.88;5237638;28;20417;-37
2022/06/24 01:09:45;;;;;;;18.30;12.68;;;;;;;23.95;53.58;100689.28;5231566;28;20772;-37
2022/06/24 01:12:19;;;;;;;31.88;13.52;;;;;;;23.97;53.69;100691.72;5230843;28;20425;-38
2022/06/24 01:14:51;;;;;;;20.10;13.95;;;;;;;24.00;53.45;100677.75;5232641;28;20401;-38
2022/06/24 01:17:24;;;;;;;19.50;13.65;;;;;;;23.95;53.61;100664.22;5227395;28;20882;-38
2022/06/24 01:19:56;;;;;;;17.27;13.00;;;;;;;23.91;53.56;100631.50;5227708;28;20421;-37
2022/06/24 01:22:30;;;;;;;18.13;12.80;;;;;;;24.06;53.56;100628.22;5224819;28;20427;-37
2022/06/24 01:25:03;;;;;;;17.00;13.13;;;;;;;24.20;53.61;100640.34;5226889;28;20418;-38
2022/06/24 01:27:35;;;;;;;19.67;12.82;;;;;;;24.28;53.60;100633.72;5228284;28;20419;-38
2022/06/24 01:30:11;;;;;;;19.20;14.00;;;;;;;24.19;53.74;100611.75;5228651;28;20465;-40
2022/06/24 01:32:43;;;;;;;20.48;13.48;;;;;;;24.29;53.72;100614.59;5226415;28;20512;-38
2022/06/24 01:35:16;;;;;;;14.80;11.15;;;;;;;24.41;53.71;100640.69;5228672;28;20427;-39
2022/06/24 01:37:50;;;;;;;17.17;11.05;;;;;;;24.43;53.92;100630.47;5229324;28;20418;-39
2022/06/24 01:40:22;;;;;;;17.17;10.77;;;;;;;24.38;53.99;100655.50;5232751;28;20818;-38
2022/06/24 01:42:55;;;;;;;20.27;11.65;;;;;;;24.41;54.06;100682.00;5234715;28;20414;-38
2022/06/24 01:45:27;;;;;;;14.45;11.52;;;;;;;24.35;54.22;100705.38;5230162;28;20439;-39
2022/06/24 01:47:59;;;;;;;18.20;11.03;;;;;;;24.30;54.24;100726.88;5231196;28;20499;-38
2022/06/24 01:50:32;;;;;;;16.15;10.70;;;;;;;24.16;54.54;100749.84;5231001;28;20412;-39
2022/06/24 01:53:06;;;;;;;19.33;11.10;;;;;;;24.16;54.61;100791.13;5230403;28;20407;-40
2022/06/24 01:55:41;;;;;;;19.63;12.50;;;;;;;24.07;54.91;100803.38;5228093;28;20783;-39
2022/06/24 01:58:16;;;;;;;30.57;12.97;;;;;;;23.90;55.18;100830.25;5233694;28;20436;-40
2022/06/24 02:00:49;;;;;;;27.98;18.00;;;;;;;23.54;55.66;100825.97;5233042;28;20405;-39
2022/06/24 02:03:21;;;;;;;31.95;17.63;;;;;;;23.31;55.91;100832.19;5232265;28;20420;-39
2022/06/24 02:05:54;;;;;;;40.45;22.63;;;;;;;23.13;55.88;100818.81;5237073;28;20504;-39
2022/06/24 02:08:28;;;;;;;33.30;20.80;;;;;;;23.06;56.04;100820.81;5232501;28;20422;-40
2022/06/24 02:13:52;;;;;;;28.35;19.10;;;;;;;22.99;56.27;100821.75;5233100;28;20399;-42
2022/06/24 02:16:25;;;;;;;28.00;16.33;;;;;;;22.94;56.47;100821.59;5232745;28;20525;-40
2022/06/24 02:18:58;;;;;;;26.25;14.27;;;;;;;22.92;56.51;100831.78;5231089;28;20420;-40
2022/06/24 02:21:31;;;;;;;18.30;9.95;;;;;;;22.86;56.94;100834.59;5226313;28;20573;-41
2022/06/24 02:24:06;;;;;;;16.02;7.40;;;;;;;22.67;56.95;100826.56;5230439;28;20428;-40
2022/06/24 02:26:39;;;;;;;14.75;7.78;;;;;;;22.63;57.44;100829.94;5223873;28;20462;-40
2022/06/24 02:29:12;;;;;;;13.00;6.57;;;;;;;22.50;57.61;100839.84;5230590;28;20944;-39
2022/06/24 02:31:44;;;;;;;14.05;6.45;;;;;;;22.35;57.82;100836.75;5232352;28;20483;-40
2022/06/24 02:34:17;;;;;;;18.00;7.10;;;;;;;22.35;57.98;100823.28;5231172;28;20427;-38
2022/06/24 02:36:49;;;;;;;13.63;6.05;;;;;;;22.33;57.85;100804.69;5229697;28;20498;-39
2022/06/24 02:39:23;;;;;;;12.43;5.70;;;;;;;22.30;57.92;100793.56;5235692;28;20504;-40
2022/06/24 02:41:55;;;;;;;9.82;4.38;;;;;;;22.29;58.03;100778.47;5230725;28;20549;-38
2022/06/24 02:44:28;;;;;;;9.05;4.60;;;;;;;22.29;57.91;100755.06;5227864;28;20430;-40
2022/06/24 02:47:00;;;;;;;6.78;4.10;;;;;;;22.28;57.94;100739.16;5228198;28;20716;-39
2022/06/24 02:49:32;;;;;;;7.63;4.40;;;;;;;22.24;58.18;100729.94;5232327;28;20941;-39
2022/06/24 02:52:07;;;;;;;9.00;4.90;;;;;;;22.23;58.05;100728.25;5234779;28;20535;-38
2022/06/24 02:54:41;;;;;;;10.47;5.53;;;;;;;22.17;58.15;100715.72;5240291;28;20484;-39
2022/06/24 02:57:13;;;;;;;9.13;6.38;;;;;;;22.18;58.16;100710.13;5240652;28;20424;-38
2022/06/24 02:59:46;;;;;;;12.15;6.85;;;;;;;22.05;58.25;100681.53;5227657;28;20933;-38
2022/06/24 03:02:18;;;;;;;11.55;5.97;;;;;;;22.03;58.24;100670.19;5231008;28;20407;-39
2022/06/24 03:04:51;;;;;;;6.97;4.28;;;;;;;22.09;58.51;100673.81;5243875;28;20427;-38
2022/06/24 03:07:23;;;;;;;12.82;5.22;;;;;;;22.06;58.53;100664.34;5236031;28;20424;-38
2022/06/24 03:09:57;;;;;;;7.88;5.18;;;;;;;22.02;58.42;100665.88;5231658;28;20767;-38
2022/06/24 03:12:29;;;;;;;8.93;6.00;;;;;;;21.99;58.46;100671.69;5228100;28;20494;-39
2022/06/24 03:15:02;;;;;;;10.55;5.05;;;;;;;21.96;58.72;100680.22;5227705;28;20415;-39
2022/06/24 03:17:34;;;;;;;11.45;5.78;;;;;;;21.89;58.49;100668.72;5229551;28;20405;-37
2022/06/24 03:20:09;;;;;;;11.57;5.97;;;;;;;21.93;58.44;100669.94;5236135;28;20441;-38
2022/06/24 03:22:42;;;;;;;12.82;6.22;;;;;;;21.97;58.49;100687.22;5234486;28;20503;-37
2022/06/24 03:25:15;;;;;;;14.57;7.60;;;;;;;21.99;58.53;100690.53;5238706;28;20429;-37
2022/06/24 03:27:48;;;;;;;15.30;7.10;;;;;;;21.82;58.30;100668.81;5234492;28;20429;-39
2022/06/24 03:30:23;;;;;;;12.73;5.55;;;;;;;21.97;58.38;100695.31;5240852;28;20518;-38
2022/06/24 03:32:55;;;;;;;13.23;6.20;;;;;;;21.97;58.54;100698.00;5235820;28;20979;-38
2022/06/24 03:35:27;;;;;;;10.30;6.10;;;;;;;21.94;58.73;100697.63;5247511;28;20458;-38
2022/06/24 03:38:00;;;;;;;10.73;5.65;;;;;;;21.89;58.80;100700.97;5226603;28;20527;-38
2022/06/24 03:40:34;;;;;;;11.07;5.80;;;;;;;21.87;58.79;100709.28;5236124;28;20462;-37
2022/06/24 03:43:06;;;;;;;8.73;5.38;;;;;;;21.88;58.83;100713.63;5230374;28;20811;-38
2022/06/24 03:45:41;;;;;;;9.95;5.50;;;;;;;21.86;58.98;100707.66;5229315;28;20950;-39
2022/06/24 03:48:13;;;;;;;11.00;6.10;;;;;;;21.87;59.19;100716.53;5241965;28;20458;-39
2022/06/24 03:50:46;;;;;;;11.90;7.35;;;;;;;21.88;59.13;100726.25;5235758;28;20438;-38
2022/06/24 03:53:18;;;;;;;12.23;7.35;;;;;;;21.87;59.43;100736.19;5233235;28;20411;-38
2022/06/24 03:55:53;;;;;;;12.65;6.97;;;;;;;21.90;59.35;100740.28;5250614;28;20499;-37
2022/06/24 03:58:25;;;;;;;13.70;7.00;;;;;;;21.89;59.24;100752.06;5242738;28;20476;-37
2022/06/24 04:01:02;;;;;;;11.43;7.30;;;;;;;21.89;59.42;100760.13;5230044;28;20896;-39
2022/06/24 04:03:34;;;;;;;14.27;8.13;;;;;;;21.86;59.47;100749.84;5229224;28;20916;-38
2022/06/24 04:06:07;;;;;;;13.48;7.72;;;;;;;21.86;59.65;100739.09;5230547;28;20493;-38
2022/06/24 04:08:39;;;;;;;11.50;7.03;;;;;;;21.86;59.79;100737.25;5229938;28;20405;-37
2022/06/24 04:11:14;;;;;;;14.90;6.25;;;;;;;21.89;59.68;100744.00;5229303;28;20871;-37
2022/06/24 04:13:47;;;;;;;10.05;6.45;;;;;;;21.88;59.91;100737.81;5232179;28;20559;-38
2022/06/24 04:16:20;;;;;;;14.95;6.97;;;;;;;21.88;59.99;100728.94;5231949;28;20559;-45
2022/06/24 04:18:53;;;;;;;11.30;6.47;;;;;;;21.88;60.03;100742.38;5223226;28;20455;-38
2022/06/24 04:21:25;;;;;;;11.55;6.10;;;;;;;21.91;59.96;100723.09;5231837;28;20434;-38
2022/06/24 04:23:58;;;;;;;8.02;5.32;;;;;;;21.92;60.02;100695.16;5235756;28;20503;-40
2022/06/24 04:26:31;;;;;;;9.52;5.60;;;;;;;21.90;60.06;100673.06;5227763;28;20494;-39
2022/06/24 04:29:04;;;;;;;12.63;6.15;;;;;;;21.84;60.27;100664.03;5232454;28;20458;-38
2022/06/24 04:31:36;;;;;;;7.93;5.22;;;;;;;21.84;60.28;100655.16;5237773;28;20419;-38
2022/06/24 04:34:08;;;;;;;9.40;5.30;;;;;;;21.78;60.42;100645.31;5230490;28;20506;-38
2022/06/24 04:36:41;;;;;;;9.00;6.17;;;;;;;21.82;60.43;100652.69;5239940;28;20426;-37
2022/06/24 04:39:13;;;;;;;9.32;5.53;;;;;;;21.83;60.55;100654.34;5234156;28;20495;-37
2022/06/24 04:41:47;;;;;;;11.50;5.75;;;;;;;21.83;60.40;100648.13;5231941;28;20561;-39
2022/06/24 04:44:19;;;;;;;11.73;6.97;;;;;;;21.80;60.60;100627.94;5239834;28;23288;-38
2022/06/24 04:46:52;;;;;;;12.90;7.25;;;;;;;21.77;60.73;100612.25;5227936;28;20531;-38
2022/06/24 04:49:24;;;;;;;13.05;7.47;;;;;;;21.75;60.83;100603.59;5237598;28;20410;-38
2022/06/24 04:51:56;;;;;;;13.40;9.05;;;;;;;21.70;60.80;100605.31;5236513;28;20436;-38
2022/06/24 04:54:29;;;;;;;15.32;8.93;;;;;;;21.65;61.06;100611.41;5234326;28;20402;-37
2022/06/24 04:57:03;;;;;;;17.15;9.15;;;;;;;21.66;61.10;100620.28;5243906;28;20477;-36
2022/06/24 04:59:35;;;;;;;19.70;9.65;;;;;;;21.42;61.36;100598.66;5237214;28;20402;-38
2022/06/24 05:02:08;;;;;;;18.00;9.75;;;;;;;21.71;61.06;100633.81;5236032;28;20882;-38
2022/06/24 05:04:40;;;;;;;16.67;9.27;;;;;;;21.75;61.21;100635.84;5238826;28;20543;-37
2022/06/24 05:07:13;;;;;;;19.77;10.40;;;;;;;21.78;61.18;100634.56;5232101;28;20425;-37
2022/06/24 05:09:46;;;;;;;16.85;10.13;;;;;;;21.83;61.10;100642.75;5239891;28;20419;-37
2022/06/24 05:12:20;;;;;;;22.77;10.90;;;;;;;21.88;60.95;100648.28;5233707;28;20545;-38
2022/06/24 05:14:52;;;;;;;22.08;10.25;;;;;;;21.84;61.06;100633.66;5234988;28;20523;-38
2022/06/24 05:17:26;;;;;;;19.15;10.77;;;;;;;21.93;61.11;100632.28;5243290;28;20438;-37
2022/06/24 05:19:58;;;;;;;17.42;10.48;;;;;;;21.94;61.12;100622.34;5241339;28;20867;-38
2022/06/24 05:22:30;;;;;;;13.35;9.60;;;;;;;21.97;61.04;100621.88;5235816;28;20425;-38
2022/06/24 05:25:03;;;;;;;12.77;8.65;;;;;;;21.95;61.13;100619.41;5241830;28;20414;-37
2022/06/24 05:27:37;;;;;;;15.80;9.70;;;;;;;21.85;61.42;100608.41;5243368;28;20773;-39
2022/06/24 05:30:11;;;;;;;19.75;8.38;;;;;;;21.82;61.45;100623.13;5241213;28;20412;-39
2022/06/24 05:32:44;;;;;;;17.10;8.55;;;;;;;21.72;61.80;100619.34;5236673;28;20524;-36
2022/06/24 05:35:16;;;;;;;16.93;9.40;;;;;;;21.68;61.94;100623.53;5240245;28;20408;-37
2022/06/24 05:37:48;;;;;;;18.83;8.90;;;;;;;21.59;61.87;100613.13;5243472;28;20948;-36
2022/06/24 05:40:21;;;;;;;15.52;9.40;;;;;;;21.45;62.20;100603.59;5240828;28;20954;-37
2022/06/24 05:42:54;;;;;;;16.95;9.55;;;;;;;21.44;62.26;100606.50;5236031;28;20519;-37
2022/06/24 05:45:27;;;;;;;16.08;9.93;;;;;;;21.41;62.38;100594.34;5237348;28;20486;-40
2022/06/24 05:47:59;;;;;;;14.52;8.75;;;;;;;21.42;62.23;100595.97;5239101;28;20462;-37
2022/06/24 05:50:32;;;;;;;17.38;9.77;;;;;;;21.47;62.21;100601.50;5229590;28;20515;-37
2022/06/24 05:55:59;;;;;;;13.23;8.95;;;;;;;21.65;62.08;100635.59;5236979;28;20427;-37
2022/06/24 05:58:33;;;;;;;16.08;8.82;;;;;;;21.68;62.10;100623.53;5231550;28;20602;-39
2022/06/24 06:01:11;;;;;;;14.95;9.15;;;;;;;21.80;61.89;100637.84;5232987;28;20825;-38
2022/06/24 06:03:44;;;;;;;13.88;8.55;;;;;;;21.92;61.98;100656.69;5234970;28;20535;-37
2022/06/24 06:06:16;;;;;;;15.57;7.65;;;;;;;21.93;61.94;100658.34;5235582;28;20429;-37
2022/06/24 06:08:49;;;;;;;12.90;6.22;;;;;;;21.96;62.02;100661.41;5229701;28;20858;-37
2022/06/24 06:11:24;;;;;;;10.95;5.95;;;;;;;22.06;61.90;100664.34;5244776;28;20421;-37
2022/06/24 06:13:58;;;;;;;10.65;6.60;;;;;;;22.13;62.07;100660.72;5246397;28;20441;-38
2022/06/24 06:16:30;;;;;;;11.15;5.60;;;;;;;22.19;62.00;100670.59;5242719;28;20532;-38
2022/06/24 06:19:03;;;;;;;11.50;6.00;;;;;;;22.23;61.95;100652.94;5239426;28;20441;-36
2022/06/24 06:21:35;;;;;;;13.57;5.90;;;;;;;22.25;61.89;100646.28;5240248;28;20938;-40
2022/06/24 06:24:29;;;;;;;12.18;5.93;;;;;;;22.35;61.88;100664.53;5238028;28;20433;-40
2022/06/24 06:27:01;;;;;;;11.82;5.82;;;;;;;22.39;61.71;100663.06;5239529;28;20997;-38
2022/06/24 06:29:35;;;;;;;12.60;6.63;;;;;;;22.42;61.70;100667.97;5242913;28;20461;-40
2022/06/24 06:32:08;;;;;;;10.52;6.47;;;;;;;22.39;61.70;100646.91;5246417;28;20450;-37
2022/06/24 06:34:41;;;;;;;12.23;5.53;;;;;;;22.51;61.56;100677.31;5247374;28;20437;-38
2022/06/24 06:37:13;;;;;;;10.23;4.63;;;;;;;22.54;61.41;100665.25;5247067;28;20432;-37
2022/06/24 06:39:45;;;;;;;10.43;4.40;;;;;;;22.48;61.47;100645.50;5244902;28;20428;-37
2022/06/24 06:42:18;;;;;;;8.65;4.60;;;;;;;22.60;61.47;100650.06;5237195;28;20442;-38
2022/06/24 06:44:52;;;;;;;7.57;4.60;;;;;;;22.66;61.23;100660.69;5242725;28;20736;-38
2022/06/24 06:47:25;;;;;;;9.90;5.45;;;;;;;22.72;61.04;100658.94;5241308;28;20430;-38
2022/06/24 06:49:57;;;;;;;14.60;5.45;;;;;;;22.77;61.06;100661.78;5232094;28;20414;-38
2022/06/24 06:52:30;;;;;;;13.80;6.20;;;;;;;22.44;60.98;100603.94;5244614;28;20432;-38
2022/06/24 06:55:03;;;;;;;15.65;8.50;;;;;;;22.78;60.83;100661.53;5243712;28;20540;-38
2022/06/24 06:57:35;;;;;;;14.02;7.57;;;;;;;22.80;60.86;100666.69;5241496;28;20467;-39
2022/06/24 07:00:10;;;;;;;14.98;8.38;;;;;;;22.67;60.83;100648.06;5240607;28;20508;-38
2022/06/24 07:02:43;;;;;;;20.20;10.18;;;;;;;22.62;60.76;100639.88;5243638;28;20440;-39
2022/06/24 07:05:15;;;;;;;14.65;9.38;;;;;;;22.76;60.62;100660.13;5243791;28;20513;-39
2022/06/24 07:07:48;;;;;;;15.40;9.73;;;;;;;22.65;60.39;100640.22;5240722;28;20840;-39
2022/06/24 07:10:22;;;;;;;16.60;10.00;;;;;;;22.75;60.53;100656.59;5229266;28;20757;-37
2022/06/24 07:12:54;;;;;;;25.83;10.00;;;;;;;22.74;60.64;100659.53;5226046;28;20415;-37
2022/06/24 07:15:28;;;;;;;14.82;9.02;;;;;;;22.77;60.68;100669.84;5228606;28;20935;-38
2022/06/24 07:18:01;;;;;;;16.30;8.73;;;;;;;22.77;60.64;100680.63;5232038;28;20939;-40
2022/06/24 07:20:34;;;;;;;15.13;9.00;;;;;;;22.73;60.33;100676.72;5231851;28;20426;-37
2022/06/24 07:23:06;;;;;;;12.88;8.50;;;;;;;22.74;60.77;100676.50;5230201;28;20419;-38
2022/06/24 07:25:39;;;;;;;14.20;9.02;;;;;;;22.71;60.62;100676.16;5226716;28;20414;-38
2022/06/24 07:28:11;;;;;;;12.55;8.27;;;;;;;22.68;60.60;100676.63;5233191;28;20576;-37
2022/06/24 07:30:45;;;;;;;15.70;8.60;;;;;;;22.65;60.48;100677.09;5235972;28;20814;-39
2022/06/24 07:33:18;;;;;;;18.00;8.98;;;;;;;22.70;60.54;100680.75;5231966;28;20425;-37
2022/06/24 07:35:50;;;;;;;16.20;9.25;;;;;;;22.70;60.62;100679.91;5222948;28;20430;-37
2022/06/24 07:38:22;;;;;;;23.80;9.75;;;;;;;22.72;60.55;100683.19;5232819;28;20415;-37
2022/06/24 07:40:55;;;;;;;16.00;10.18;;;;;;;22.69;60.49;100684.47;5229067;28;20422;-37
2022/06/24 07:43:28;;;;;;;19.38;11.55;;;;;;;22.67;60.49;100680.38;5227693;28;20825;-37
2022/06/24 07:46:02;;;;;;;16.60;11.13;;;;;;;22.70;60.41;100682.59;5224452;28;20511;-37
2022/06/24 07:48:34;;;;;;;19.38;11.88;;;;;;;22.72;60.40;100683.19;5233963;28;20509;-37
2022/06/24 07:51:12;;;;;;;23.02;12.63;;;;;;;22.72;60.38;100677.78;5231854;28;20421;-39
2022/06/24 07:53:47;;;;;;;19.30;11.88;;;;;;;22.74;60.45;100686.47;5230144;28;20428;-37
2022/06/24 07:59:10;;;;;;;16.50;11.00;;;;;;;22.86;60.35;100679.22;5224934;28;20423;-38
2022/06/24 08:01:43;;;;;;;17.55;11.35;;;;;;;22.95;60.19;100682.41;5229267;28;20435;-37
2022/06/24 08:04:16;;;;;;;20.17;10.88;;;;;;;23.02;59.89;100688.47;5226721;28;20430;-39
2022/06/24 08:06:49;;;;;;;17.77;10.63;;;;;;;22.84;59.81;100662.47;5223523;28;20423;-37
2022/06/24 08:09:23;;;;;;;17.05;10.25;;;;;;;23.03;59.97;100684.72;5226806;28;20546;-39
2022/06/24 08:11:55;;;;;;;19.75;11.00;;;;;;;23.13;59.95;100686.81;5230834;28;20499;-38
2022/06/24 08:14:28;;;;;;;20.40;10.85;;;;;;;23.23;59.82;100690.56;5234010;28;20890;-37
2022/06/24 08:17:02;;;;;;;19.13;11.30;;;;;;;23.34;59.66;100685.38;5233681;28;20418;-38
2022/06/24 08:19:35;;;;;;;15.98;9.02;;;;;;;23.40;59.66;100682.53;5239991;28;20414;-38
2022/06/24 08:22:07;;;;;;;14.50;8.48;;;;;;;;;;5237996;28;20925;-39
2022/06/24 08:24:40;;;;;;;15.60;8.70;;;;;;;23.51;59.43;100690.84;5233228;28;20906;-39
2022/06/24 08:27:12;;;;;;;12.05;8.70;;;;;;;23.51;59.28;100680.06;5237125;28;20430;-38
2022/06/24 08:29:45;;;;;;;13.35;8.45;;;;;;;23.52;59.20;100687.09;5239967;28;20656;-39
2022/06/24 08:32:19;;;;;;;12.80;8.43;;;;;;;23.58;58.96;100678.03;5244474;28;20440;-41
2022/06/24 08:34:51;;;;;;;15.88;9.55;;;;;;;23.58;58.61;100672.66;5237090;28;20474;-38
2022/06/24 08:37:23;;;;;;;17.02;8.73;;;;;;;23.62;58.78;100681.88;5236559;28;20471;-38
2022/06/24 08:39:57;;;;;;;14.95;8.68;;;;;;;23.54;58.52;100685.00;5233762;28;20776;-39
2022/06/24 08:42:29;;;;;;;13.83;8.30;;;;;;;23.45;58.46;100665.66;5234411;28;20916;-38
2022/06/24 08:45:02;;;;;;;12.70;8.20;;;;;;;23.54;58.54;100676.91;5232728;28;20420;-39
2022/06/24 08:47:36;;;;;;;11.25;7.47;;;;;;;23.68;58.19;100676.34;5228167;28;20411;-40
2022/06/24 08:50:09;;;;;;;11.15;6.53;;;;;;;23.76;58.03;100683.28;5227811;28;20518;-39
2022/06/24 08:52:48;;;;;;;11.65;7.20;;;;;;;23.83;57.99;100686.66;5224270;28;20950;-39
2022/06/24 08:55:21;;;;;;;12.13;6.72;;;;;;;23.88;57.96;100685.94;5230409;28;20504;-39
2022/06/24 08:57:54;;;;;;;15.25;7.03;;;;;;;23.83;57.72;100678.56;5229437;28;20896;-39
2022/06/24 09:00:27;;;;;;;13.02;6.78;;;;;;;23.86;57.80;100677.25;5224834;28;20647;-39
2022/06/24 09:03:01;;;;;;;13.93;8.10;;;;;;;23.85;57.80;100671.06;5224685;28;20501;-37
2022/06/24 09:05:33;;;;;;;13.65;8.98;;;;;;;23.83;57.83;100675.84;5221507;28;21976;-40
2022/06/24 09:08:08;;;;;;;13.35;9.82;;;;;;;23.84;57.55;100669.41;5222329;28;20419;-40
2022/06/24 09:10:43;;;;;;;19.05;11.50;;;;;;;23.90;57.37;100679.22;5207967;28;20415;-39
2022/06/24 09:13:21;;;;;;;17.23;11.52;;;;;;;23.87;57.41;100662.69;5223895;28;20424;-37
2022/06/24 09:15:54;;;;;;;17.45;12.43;;;;;;;23.90;57.22;100668.44;5221921;28;20763;-43
2022/06/24 09:18:28;;;;;;;21.17;14.10;;;;;;;23.93;57.17;100662.56;5222782;28;20873;-38
2022/06/24 09:21:00;;;;;;;17.45;14.07;;;;;;;23.87;57.06;100663.53;5227065;28;20487;-40
2022/06/24 09:23:33;;;;;;;21.07;15.17;;;;;;;23.84;56.98;100672.09;5231803;28;20429;-38
2022/06/24 09:26:05;;;;;;;18.02;14.02;;;;;;;23.82;57.03;100663.44;5220900;28;20522;-39
2022/06/24 09:28:38;;;;;;;18.73;14.35;;;;;;;23.92;56.78;100663.63;5223992;28;20891;-40
2022/06/24 09:31:11;;;;;;;22.40;15.27;;;;;;;24.04;56.65;100673.53;5224749;28;20946;-40
2022/06/24 09:33:45;;;;;;;24.03;15.57;;;;;;;24.04;56.46;100657.34;5225308;28;20414;-44
2022/06/24 09:36:17;;;;;;;21.70;14.87;;;;;;;24.09;56.46;100670.91;5229134;28;20432;-38
2022/06/24 09:38:56;;;;;;;21.30;15.70;;;;;;;24.07;56.66;100673.06;5238513;28;31212;-38
2022/06/24 09:41:29;;;;;;;23.52;17.17;;;;;;;24.06;56.42;100671.41;5230226;28;20527;-38
2022/06/24 09:44:02;;;;;;;24.17;17.23;;;;;;;24.09;56.38;100670.91;5228865;28;20623;-38
2022/06/24 09:46:34;;;;;;;26.02;16.75;;;;;;;24.27;56.30;100673.38;5239282;28;20418;-38
2022/06/24 09:49:11;;;;;;;21.77;15.87;;;;;;;24.32;56.07;100665.38;5239688;28;20509;-39
2022/06/24 09:51:46;;;;;;;25.10;15.57;;;;;;;24.43;56.01;100660.16;5237128;28;20516;-38
2022/06/24 09:54:18;;;;;;;22.55;14.55;;;;;;;24.55;55.88;100669.00;5227056;28;20824;-38
2022/06/24 09:56:51;;;;;;;22.83;15.05;;;;;;;24.70;55.81;100673.81;5228642;28;20886;-40
2022/06/24 10:02:20;;;;;;;20.17;14.02;;;;;;;24.81;55.71;100684.53;5226200;28;20420;-38
2022/06/24 10:04:59;;;;;;;20.65;14.52;;;;;;;24.84;55.60;100684.03;5224323;28;20926;-41
2022/06/24 10:07:35;;;;;;;19.23;13.67;;;;;;;24.84;55.56;100670.53;5224445;28;20513;-40
2022/06/24 10:10:09;;;;;;;19.35;13.48;;;;;;;24.84;55.51;100667.00;5229367;28;20841;-38
2022/06/24 10:12:46;;;;;;;23.58;13.45;;;;;;;24.94;55.13;100672.56;5225795;28;20415;-40
2022/06/24 10:15:19;;;;;;;18.25;13.43;;;;;;;25.03;55.10;100671.06;5230833;28;20738;-39
2022/06/24 10:17:52;;;;;;;21.25;13.98;;;;;;;25.03;54.91;100617.03;5225322;28;20427;-38
2022/06/24 10:20:27;;;;;;;17.77;12.32;;;;;;;25.71;54.29;100671.63;5227652;28;20768;-40
2022/06/24 10:22:59;;;;;;;15.98;9.88;;;;;;;25.98;53.91;100678.94;5229655;28;20415;-38
2022/06/24 10:25:53;;;;;;;15.30;9.23;;;;;;;26.25;53.57;100675.41;5224216;28;20551;-38
2022/06/24 10:28:26;;;;;;;15.98;9.65;;;;;;;26.27;53.35;100662.44;5227467;28;20411;-38
2022/06/24 10:30:59;;;;;;;15.18;9.27;;;;;;;26.28;52.95;100647.81;5225895;28;20414;-38
2022/06/24 10:33:32;;;;;;;12.73;7.07;;;;;;;26.65;52.64;100689.28;5227911;28;20424;-39
2022/06/24 10:36:07;;;;;;;12.98;6.43;;;;;;;26.81;52.34;100684.78;5228130;28;20435;-38
2022/06/24 10:38:42;;;;;;;7.90;4.30;;;;;;;26.72;51.99;100650.31;5229487;28;20416;-37
2022/06/24 10:41:14;;;;;;;7.43;4.47;;;;;;;26.99;51.61;100672.69;5228664;28;20420;-37
2022/06/24 10:43:47;;;;;;;6.18;3.70;;;;;;;27.12;51.07;100680.34;5228674;28;20427;-41
2022/06/24 10:46:21;;;;;;;7.15;3.35;;;;;;;26.98;50.37;100635.84;5235118;28;20467;-43
2022/06/24 10:49:03;;;;;;;5.00;3.03;;;;;;;27.26;50.12;100680.72;5230643;28;20407;-38
2022/06/24 10:51:37;;;;;;;5.63;2.70;;;;;;;27.32;49.65;100663.41;5226249;28;20514;-39
2022/06/24 10:54:13;;;;;;;8.65;3.15;;;;;;;27.45;49.23;100675.63;5230187;28;20902;-38
2022/06/24 10:56:47;;;;;;;6.07;3.28;;;;;;;26.93;48.89;100600.56;5228137;28;20434;-40
2022/06/24 10:59:21;;;;;;;6.22;3.45;;;;;;;27.44;48.76;100675.88;5234509;28;20418;-38
2022/06/24 11:01:54;;;;;;;5.17;2.60;;;;;;;27.53;48.37;100679.72;5228354;28;20746;-40
2022/06/24 11:04:30;;;;;;;5.72;3.08;;;;;;;27.55;48.17;100689.22;5228266;28;20935;-40
2022/06/24 11:07:13;;;;;;;5.40;2.58;;;;;;;27.62;47.86;100677.31;5223282;28;20431;-40
2022/06/24 11:09:45;;;;;;;7.03;3.00;;;;;;;27.70;47.28;100679.50;5209236;28;20421;-39
2022/06/24 11:12:31;;;;;;;4.90;2.20;;;;;;;27.80;46.96;100671.41;5211758;28;20504;-39
2022/06/24 11:15:05;;;;;;;3.58;2.10;;;;;;;27.90;46.62;100674.13;5209002;28;20436;-40
2022/06/24 11:17:41;;;;;;;5.07;1.88;;;;;;;27.94;46.54;100675.25;5204266;28;20886;-40
2022/06/24 11:20:15;;;;;;;3.50;2.08;;;;;;;28.08;46.09;100663.84;5207623;28;20427;-39
2022/06/24 11:22:49;;;;;;;3.28;1.75;;;;;;;28.43;45.65;100674.75;5207799;28;20958;-40
2022/06/24 11:25:23;;;;;;;4.10;1.98;;;;;;;28.61;45.18;100677.97;5204448;28;20417;-42
2022/06/24 11:27:56;;;;;;;3.58;1.77;;;;;;;28.60;45.03;100660.88;5205704;28;20421;-42
2022/06/24 11:30:28;;;;;;;5.30;1.80;;;;;;;28.73;44.96;100664.91;5202112;28;20412;-41
2022/06/24 11:33:02;;;;;;;4.60;2.05;;;;;;;28.90;44.34;100649.09;5203502;28;20772;-39
2022/06/24 11:35:35;;;;;;;4.68;2.00;;;;;;;29.15;43.84;100650.94;5206455;28;20407;-40
2022/06/24 11:38:10;;;;;;;5.50;1.95;;;;;;;29.39;43.59;100656.56;5208384;28;20965;-39
2022/06/24 11:40:43;;;;;;;5.20;1.85;;;;;;;29.42;43.23;100645.13;5209589;28;20419;-43
2022/06/24 11:43:16;;;;;;;7.20;2.58;;;;;;;29.59;42.86;100649.38;5208251;28;20856;-41
2022/06/24 11:45:50;;;;;;;7.43;2.15;;;;;;;29.73;42.49;100650.41;5209727;28;20503;-38
2022/06/24 11:48:24;;;;;;;3.92;1.70;;;;;;;29.88;42.23;100655.72;5213990;28;20431;-39
2022/06/24 11:50:56;;;;;;;6.70;2.45;;;;;;;29.96;41.69;100653.50;5207706;28;20426;-38
2022/06/24 11:53:30;;;;;;;4.03;1.85;;;;;;;30.13;41.30;100648.44;5209509;28;20428;-39
2022/06/24 11:56:03;;;;;;;4.07;1.73;;;;;;;30.30;40.88;100648.88;5210010;28;20401;-39
2022/06/24 11:58:38;;;;;;;4.03;1.92;;;;;;;30.46;40.69;100646.03;5214448;28;20429;-40